Terry Peak, South Dakota
Current Conditions -  °F | °C
As of 2:35 AM on Thursday 23 Oct 2014 (Local Time) from KSPF Reporting Station
Clear Clear  
Wind Chill: 35°   Ceiling: Unl
Heat Index: 39°   Visibility: 10mi
Dew Point: 25°   Wind: 6mph
Humidity: 56%   Direction: 280°W
Pressure: 30.02"   Gusts: NA
Location:  44.253°N, 103.912°W
Report Text: KSPF 230835Z AUTO 28005KT 10SM CLR 04/M04 A3002 RMK AO2
Loading
Personal Weather Stations






























Interactive Weather Map
Tropical Storm Tracking
New forecast layout! Learn more

10-Day Weather Forecast

Advertisements
Track Severe Weather on mobile